Time;durP1;ratioP1;P1;durP2;ratioP2;P2;SDS_P1;SDS_P2;PMS_P1;PMS_P2;Temp;Humidity;BMP_temperature;BMP_pressure;BME280_temperature;BME280_humidity;BME280_pressure;Samples;Min_cycle;Max_cycle;Signal;HPM_P1;HPM_P2
2022/11/09 00:01:38;;;;;;;2.73;0.77;;;25.60;64.50;;;;;;4993617;28;20816;-81
2022/11/09 00:04:06;;;;;;;3.58;0.80;;;25.70;63.90;;;;;;4992698;28;20397;-81
2022/11/09 00:06:34;;;;;;;5.00;0.80;;;26.10;63.00;;;;;;5009225;28;20467;-82
2022/11/09 00:09:03;;;;;;;3.25;0.73;;;25.70;62.40;;;;;;4994054;28;20426;-82
2022/11/09 00:11:30;;;;;;;2.78;0.70;;;25.60;64.40;;;;;;5011057;28;20411;-82
2022/11/09 00:13:57;;;;;;;1.38;0.70;;;25.60;62.50;;;;;;5001651;28;20783;-81
2022/11/09 00:16:24;;;;;;;2.00;0.68;;;25.40;63.50;;;;;;5008331;28;20471;-81
2022/11/09 00:18:52;;;;;;;1.95;0.73;;;25.80;63.70;;;;;;5002065;28;20375;-83
2022/11/09 00:21:21;;;;;;;1.33;0.63;;;26.40;62.30;;;;;;5009654;28;20859;-83
2022/11/09 00:23:49;;;;;;;1.50;0.70;;;26.50;61.90;;;;;;5000653;28;20391;-83
2022/11/09 00:26:18;;;;;;;1.93;0.73;;;27.00;60.90;;;;;;5000933;28;20454;-82
2022/11/09 00:28:45;;;;;;;2.22;0.80;;;27.30;58.80;;;;;;4999492;28;20498;-83
2022/11/09 00:31:16;;;;;;;2.22;0.80;;;27.30;57.50;;;;;;5001436;28;20816;-82
2022/11/09 00:33:46;;;;;;;2.60;0.88;;;27.20;58.60;;;;;;4998994;28;20389;-83
2022/11/09 00:36:13;;;;;;;6.65;0.70;;;27.10;59.10;;;;;;5011620;28;20371;-82
2022/11/09 00:38:41;;;;;;;3.15;0.80;;;26.80;57.50;;;;;;5011361;28;20498;-83
2022/11/09 00:41:10;;;;;;;1.45;0.60;;;26.40;58.80;;;;;;5010271;28;20399;-84
2022/11/09 00:43:37;;;;;;;2.08;0.70;;;26.30;59.40;;;;;;5011383;28;20862;-83
2022/11/09 00:46:05;;;;;;;1.23;0.80;;;26.00;59.50;;;;;;5011519;28;20430;-82
2022/11/09 00:48:32;;;;;;;1.90;0.70;;;25.60;58.80;;;;;;5011071;28;20414;-82
2022/11/09 00:50:59;;;;;;;1.98;0.70;;;25.20;60.10;;;;;;5011229;28;20735;-84
2022/11/09 00:53:27;;;;;;;2.75;0.70;;;24.90;58.90;;;;;;5011400;28;20418;-82
2022/11/09 00:56:05;;;;;;;3.97;0.80;;;24.60;61.20;;;;;;5011173;28;20389;-81
2022/11/09 00:58:35;;;;;;;3.33;0.73;;;24.50;62.30;;;;;;5000831;28;20373;-81
2022/11/09 01:01:10;;;;;;;2.08;0.70;;;24.80;63.50;;;;;;5008310;28;20738;-82
2022/11/09 01:03:37;;;;;;;2.40;0.73;;;25.50;61.00;;;;;;5011352;28;20451;-82
2022/11/09 01:06:05;;;;;;;1.48;0.60;;;25.80;59.50;;;;;;5011171;28;20383;-83
2022/11/09 01:08:33;;;;;;;2.85;0.63;;;26.10;58.20;;;;;;5010835;28;20473;-82
2022/11/09 01:11:05;;;;;;;1.77;0.70;;;26.50;59.20;;;;;;5011025;28;20383;-82
2022/11/09 01:13:33;;;;;;;2.13;0.65;;;26.90;57.90;;;;;;5010800;28;21040;-83
2022/11/09 01:16:06;;;;;;;3.13;0.60;;;27.30;59.50;;;;;;5010615;28;20375;-84
2022/11/09 01:18:33;;;;;;;2.35;0.60;;;28.10;55.70;;;;;;5010729;28;20413;-84
2022/11/09 01:21:03;;;;;;;1.73;0.60;;;28.70;53.70;;;;;;5010774;28;20426;-84
2022/11/09 01:23:31;;;;;;;2.75;0.68;;;28.70;53.30;;;;;;5010710;28;20929;-83
2022/11/09 01:26:04;;;;;;;1.65;0.70;;;28.40;53.00;;;;;;4999085;28;20763;-83
2022/11/09 01:28:32;;;;;;;2.92;0.70;;;28.00;54.50;;;;;;5010145;28;20914;-82
2022/11/09 01:31:05;;;;;;;1.55;0.50;;;28.40;55.20;;;;;;4999385;28;20384;-84
2022/11/09 01:33:33;;;;;;;2.03;0.57;;;29.20;54.40;;;;;;5009302;28;20418;-81
2022/11/09 01:36:04;;;;;;;1.35;0.60;;;29.70;52.20;;;;;;5010586;28;20422;-84
2022/11/09 01:38:32;;;;;;;2.72;0.60;;;29.30;52.70;;;;;;5010115;28;20394;-82
2022/11/09 01:40:59;;;;;;;2.43;0.60;;;28.70;53.80;;;;;;5010514;28;20807;-83
2022/11/09 01:43:26;;;;;;;3.95;0.60;;;27.90;55.20;;;;;;4996873;28;20423;-83
2022/11/09 01:46:21;;;;;;;1.95;0.80;;;27.40;56.80;;;;;;5010601;28;20391;-82
2022/11/09 01:49:03;;;;;;;2.83;0.73;;;26.90;58.20;;;;;;5006329;28;20417;-81
2022/11/09 01:51:51;;;;;;;1.77;0.70;;;26.50;59.40;;;;;;5009430;28;20458;-81
2022/11/09 01:54:23;;;;;;;2.55;0.60;;;26.20;60.30;;;;;;4995002;28;20385;-83
2022/11/09 01:56:53;;;;;;;3.17;0.73;;;25.90;61.10;;;;;;4994595;28;20792;-82
2022/11/09 01:59:27;;;;;;;2.33;0.80;;;25.90;61.50;;;;;;4991943;28;20399;-82
2022/11/09 02:01:54;;;;;;;3.53;0.80;;;26.10;62.70;;;;;;5000102;28;20420;-81
2022/11/09 02:04:34;;;;;;;4.13;0.80;;;26.50;61.10;;;;;;4990718;28;20794;-82
2022/11/09 02:07:02;;;;;;;3.28;0.75;;;27.30;60.10;;;;;;4989428;28;20424;-82
2022/11/09 02:09:44;;;;;;;2.60;0.80;;;28.00;59.20;;;;;;4992904;28;20391;-83
2022/11/09 02:12:11;;;;;;;2.30;0.70;;;28.20;56.30;;;;;;5010387;28;20465;-82
2022/11/09 02:14:39;;;;;;;1.45;0.60;;;28.50;56.50;;;;;;5010060;28;20410;-83
2022/11/09 02:17:07;;;;;;;1.27;0.67;;;29.10;53.70;;;;;;5009693;28;20398;-82
2022/11/09 02:19:34;;;;;;;2.90;0.68;;;29.60;54.70;;;;;;5010374;28;20383;-84
2022/11/09 02:22:01;;;;;;;10.50;0.82;;;30.10;53.40;;;;;;5009581;28;20484;-83
2022/11/09 02:24:29;;;;;;;2.55;0.68;;;31.00;54.00;;;;;;5010405;28;20717;-81
2022/11/09 02:26:56;;;;;;;0.88;0.50;;;32.00;51.90;;;;;;5010354;28;20422;-82
2022/11/09 02:29:34;;;;;;;1.77;0.60;;;32.60;49.30;;;;;;5002466;28;20522;-82
2022/11/09 02:32:07;;;;;;;1.98;0.73;;;32.30;49.70;;;;;;4982932;28;20422;-82
2022/11/09 02:34:34;;;;;;;2.45;0.70;;;31.40;50.30;;;;;;5009810;28;20383;-81
2022/11/09 02:37:01;;;;;;;1.57;0.50;;;30.30;51.00;;;;;;5007733;28;20375;-82
2022/11/09 02:39:28;;;;;;;2.20;0.70;;;29.40;52.00;;;;;;4984902;28;20408;-83
2022/11/09 02:42:12;;;;;;;1.15;0.60;;;28.70;53.20;;;;;;5003004;28;20395;-81
2022/11/09 02:44:48;;;;;;;2.53;0.70;;;28.00;55.40;;;;;;5002546;28;20826;-82
2022/11/09 02:47:15;;;;;;;2.78;0.80;;;28.00;55.60;;;;;;5010256;28;20398;-84
2022/11/09 02:49:43;;;;;;;2.85;0.70;;;28.90;53.60;;;;;;4998116;28;20784;-82
2022/11/09 02:52:10;;;;;;;2.60;0.70;;;29.60;53.10;;;;;;5008254;28;20375;-82
2022/11/09 02:54:36;;;;;;;3.10;0.60;;;29.20;53.10;;;;;;5003995;28;20728;-81
2022/11/09 02:57:04;;;;;;;2.38;0.60;;;28.70;53.40;;;;;;4996859;28;20895;-81
2022/11/09 02:59:31;;;;;;;2.40;0.80;;;29.20;54.60;;;;;;5003580;28;20463;-81
2022/11/09 03:01:58;;;;;;;2.07;0.70;;;29.60;53.70;;;;;;4998112;28;20383;-81
2022/11/09 03:04:25;;;;;;;8.82;0.60;;;30.40;54.20;;;;;;5017316;28;20387;-81
2022/11/09 03:06:52;;;;;;;1.50;0.50;;;31.60;50.10;;;;;;5007781;28;20395;-81
2022/11/09 03:09:19;;;;;;;1.80;0.70;;;32.30;49.90;;;;;;5017294;28;20387;-83
2022/11/09 03:11:46;;;;;;;2.30;0.60;;;32.00;48.90;;;;;;5000420;28;20381;-83
2022/11/09 03:14:13;;;;;;;1.58;0.50;;;31.00;49.80;;;;;;5007193;28;20390;-81
2022/11/09 03:16:40;;;;;;;1.50;0.60;;;30.00;50.30;;;;;;5003213;28;20419;-83
2022/11/09 03:19:07;;;;;;;1.67;0.57;;;29.00;51.90;;;;;;5013261;28;20448;-82
2022/11/09 03:21:34;;;;;;;1.75;0.60;;;28.20;54.00;;;;;;5012946;28;20886;-83
2022/11/09 03:24:01;;;;;;;2.80;0.80;;;27.70;54.50;;;;;;5012857;28;21376;-83
2022/11/09 03:26:28;;;;;;;6.65;0.70;;;27.60;55.10;;;;;;5012847;28;20886;-84
2022/11/09 03:28:55;;;;;;;2.80;0.70;;;28.60;54.50;;;;;;5013147;28;20395;-84
2022/11/09 03:31:22;;;;;;;1.50;0.60;;;30.00;53.70;;;;;;5012890;28;20376;-82
2022/11/09 03:33:49;;;;;;;1.73;0.52;;;31.40;50.10;;;;;;5012787;28;20391;-82
2022/11/09 03:36:16;;;;;;;1.50;0.60;;;32.20;49.30;;;;;;5012671;28;20487;-84
2022/11/09 03:38:43;;;;;;;1.27;0.52;;;33.00;47.10;;;;;;5012204;28;20454;-83
2022/11/09 03:41:13;;;;;;;2.22;0.50;;;33.30;47.70;;;;;;5011742;28;20443;-83
2022/11/09 03:43:40;;;;;;;5.68;0.70;;;33.50;47.30;;;;;;5000170;28;20383;-87
2022/11/09 03:46:07;;;;;;;2.90;0.60;;;34.30;46.20;;;;;;5001713;28;20401;-85
2022/11/09 03:48:34;;;;;;;1.27;0.52;;;34.90;46.10;;;;;;5009081;28;20461;-82
2022/11/09 03:51:01;;;;;;;1.77;0.55;;;35.10;45.00;;;;;;5009518;28;20396;-84
2022/11/09 03:53:28;;;;;;;1.60;0.52;;;34.70;45.10;;;;;;5003933;28;20709;-81
2022/11/09 03:55:57;;;;;;;1.83;0.68;;;34.40;44.10;;;;;;4992570;28;20391;-82
2022/11/09 03:58:24;;;;;;;1.67;0.60;;;33.20;44.50;;;;;;4993229;28;20436;-82
2022/11/09 04:00:51;;;;;;;1.83;0.60;;;31.50;47.00;;;;;;4990806;28;20441;-82
2022/11/09 04:03:18;;;;;;;1.15;0.60;;;30.40;48.30;;;;;;4994153;28;20385;-83
2022/11/09 04:05:45;;;;;;;2.05;0.50;;;30.60;50.80;;;;;;4991892;28;20384;-82
2022/11/09 04:08:12;;;;;;;2.83;0.70;;;31.50;48.50;;;;;;4990211;28;20399;-82
2022/11/09 04:10:39;;;;;;;2.53;0.50;;;31.40;47.60;;;;;;4991344;28;20392;-82
2022/11/09 04:13:06;;;;;;;2.13;0.57;;;30.20;49.10;;;;;;4991933;28;20393;-82
2022/11/09 04:15:33;;;;;;;2.72;0.70;;;29.80;51.10;;;;;;4992436;28;20389;-82
2022/11/09 04:18:02;;;;;;;2.83;0.70;;;30.40;50.70;;;;;;4990639;28;20400;-83
2022/11/09 04:20:30;;;;;;;2.17;0.80;;;30.20;50.70;;;;;;4990533;28;20396;-82
2022/11/09 04:23:01;;;;;;;1.70;0.80;;;29.50;51.60;;;;;;4991491;28;20388;-82
2022/11/09 04:25:31;;;;;;;3.30;0.80;;;28.60;52.00;;;;;;4991251;28;20374;-82
2022/11/09 04:27:59;;;;;;;2.53;0.80;;;28.10;52.80;;;;;;4991031;28;20412;-82
2022/11/09 04:30:28;;;;;;;3.22;0.80;;;27.80;53.60;;;;;;4986557;28;20733;-84
2022/11/09 04:32:56;;;;;;;2.33;0.70;;;27.30;55.20;;;;;;4993889;28;20476;-83
2022/11/09 04:35:24;;;;;;;1.70;0.70;;;28.40;54.70;;;;;;4991107;28;20384;-83
2022/11/09 04:37:59;;;;;;;2.72;0.80;;;30.10;52.10;;;;;;4990863;28;20403;-82
2022/11/09 04:40:30;;;;;;;2.97;0.88;;;31.50;49.90;;;;;;4990856;28;20889;-86
2022/11/09 04:43:05;;;;;;;2.05;1.23;;;32.30;47.80;;;;;;5002412;28;20735;-85
2022/11/09 04:45:33;;;;;;;1.77;1.00;;;31.50;47.90;;;;;;4990900;28;20865;-85
2022/11/09 04:48:06;;;;;;;2.05;1.08;;;31.30;48.90;;;;;;4986827;28;20951;-84
2022/11/09 04:50:34;;;;;;;1.45;0.73;;;31.80;47.80;;;;;;4991773;28;20383;-85
2022/11/09 04:53:05;;;;;;;2.93;0.80;;;32.20;46.20;;;;;;5006181;28;20742;-85
2022/11/09 04:55:33;;;;;;;3.13;0.90;;;32.50;47.30;;;;;;5004925;28;20384;-85
2022/11/09 04:57:59;;;;;;;2.70;0.90;;;32.60;46.20;;;;;;4990113;28;20400;-85
2022/11/09 05:00:27;;;;;;;2.87;0.90;;;32.90;45.70;;;;;;4991233;28;20467;-85
2022/11/09 05:02:54;;;;;;;2.13;1.02;;;33.00;45.90;;;;;;4989733;28;20392;-88
2022/11/09 05:05:20;;;;;;;2.83;0.88;;;32.80;45.70;;;;;;4991377;28;20384;-86
2022/11/09 05:07:47;;;;;;;3.55;1.02;;;33.00;44.90;;;;;;4991037;28;20923;-89
2022/11/09 05:10:15;;;;;;;25.00;3.72;;;33.20;44.90;;;;;;4991270;28;20789;-85
2022/11/09 05:12:42;;;;;;;3.20;1.20;;;33.40;44.00;;;;;;4991115;28;20385;-83
2022/11/09 05:15:09;;;;;;;4.22;1.10;;;33.10;43.90;;;;;;4987206;28;20411;-83
2022/11/09 05:17:36;;;;;;;2.53;1.00;;;33.20;44.30;;;;;;4991454;28;20381;-83
2022/11/09 05:20:04;;;;;;;1.53;0.63;;;33.10;43.90;;;;;;4991187;28;20381;-82
2022/11/09 05:25:16;;;;;;;2.20;0.70;;;32.80;43.60;;;;;;4992756;28;20380;-83
2022/11/09 05:27:43;;;;;;;3.25;0.60;;;32.60;43.80;;;;;;4991033;28;20409;-84
2022/11/09 05:30:10;;;;;;;2.63;0.70;;;32.20;43.90;;;;;;4991042;28;20381;-81
2022/11/09 05:32:40;;;;;;;2.30;0.80;;;32.10;43.70;;;;;;4990883;28;20431;-83
2022/11/09 05:35:07;;;;;;;1.92;0.70;;;32.10;44.50;;;;;;4990454;28;20437;-84
2022/11/09 05:37:34;;;;;;;1.80;0.70;;;32.20;44.20;;;;;;4990456;28;20456;-83
2022/11/09 05:40:01;;;;;;;1.23;0.50;;;32.20;43.20;;;;;;4990597;28;20408;-83
2022/11/09 05:42:28;;;;;;;1.17;0.50;;;32.40;42.40;;;;;;4991046;28;20400;-83
2022/11/09 05:44:55;;;;;;;1.10;0.47;;;31.80;42.50;;;;;;4990724;28;20439;-83
2022/11/09 05:47:22;;;;;;;1.08;0.50;;;31.40;43.60;;;;;;4990455;28;20455;-83
2022/11/09 05:49:49;;;;;;;0.90;0.40;;;31.40;44.00;;;;;;4990746;28;20385;-86
2022/11/09 05:52:16;;;;;;;1.73;0.50;;;31.80;43.70;;;;;;5003667;28;20400;-84
2022/11/09 05:54:43;;;;;;;2.00;0.50;;;32.00;42.10;;;;;;5000389;28;20457;-82
2022/11/09 05:57:10;;;;;;;0.70;0.40;;;32.10;42.80;;;;;;5004095;28;20402;-81
2022/11/09 05:59:37;;;;;;;2.10;0.50;;;32.20;42.80;;;;;;5010671;28;20755;-83
2022/11/09 06:02:04;;;;;;;1.73;0.50;;;32.30;41.70;;;;;;4999769;28;20492;-80
2022/11/09 06:04:31;;;;;;;2.10;0.43;;;32.00;42.00;;;;;;4992738;28;20431;-82
2022/11/09 06:06:58;;;;;;;1.23;0.50;;;31.50;42.10;;;;;;4991925;28;20436;-82
2022/11/09 06:09:25;;;;;;;0.80;0.40;;;31.10;43.10;;;;;;5000527;28;20397;-84
2022/11/09 06:11:52;;;;;;;1.15;0.40;;;30.90;43.00;;;;;;4991140;28;20427;-81
2022/11/09 06:14:19;;;;;;;1.10;0.40;;;30.90;43.30;;;;;;4992228;28;20389;-83
2022/11/09 06:16:46;;;;;;;5.37;0.73;;;30.50;43.20;;;;;;5000670;28;20774;-92
2022/11/09 06:19:13;;;;;;;1.20;0.45;;;30.50;43.50;;;;;;4996615;28;20406;-85
2022/11/09 06:21:40;;;;;;;2.30;0.50;;;30.60;44.10;;;;;;5004675;28;20398;-82
2022/11/09 06:24:07;;;;;;;1.48;0.50;;;30.70;43.90;;;;;;4982899;28;20454;-82
2022/11/09 06:26:34;;;;;;;1.83;0.50;;;30.80;43.20;;;;;;5007615;28;20406;-82
2022/11/09 06:29:01;;;;;;;1.92;0.57;;;30.70;43.70;;;;;;5008143;28;20406;-82
2022/11/09 06:31:28;;;;;;;1.20;0.50;;;30.80;43.70;;;;;;5017357;28;20383;-81
2022/11/09 06:33:55;;;;;;;1.30;0.60;;;30.60;43.40;;;;;;5018813;28;20387;-82
2022/11/09 06:36:22;;;;;;;1.37;0.50;;;30.40;44.50;;;;;;5017038;28;20418;-82
2022/11/09 06:38:51;;;;;;;0.70;0.50;;;30.50;44.50;;;;;;5009989;28;20794;-83
2022/11/09 06:41:18;;;;;;;1.25;0.43;;;30.50;44.10;;;;;;5014896;28;20382;-82
2022/11/09 06:43:45;;;;;;;1.40;0.60;;;30.30;44.30;;;;;;4999023;28;20399;-84
2022/11/09 06:46:16;;;;;;;1.50;0.40;;;29.90;45.90;;;;;;5014116;28;20379;-82
2022/11/09 06:48:43;;;;;;;0.88;0.50;;;30.00;45.40;;;;;;5005089;28;20449;-84
2022/11/09 06:51:11;;;;;;;1.70;0.50;;;29.80;45.20;;;;;;5012180;28;20384;-81
2022/11/09 06:53:40;;;;;;;2.13;0.43;;;29.90;45.70;;;;;;5001034;28;20384;-81
2022/11/09 06:56:08;;;;;;;1.45;0.60;;;29.90;45.60;;;;;;5001208;28;20400;-87
2022/11/09 06:58:35;;;;;;;2.17;0.50;;;30.00;45.40;;;;;;5005690;28;20463;-88
2022/11/09 07:01:10;;;;;;;1.70;0.90;;;30.00;45.00;;;;;;5013895;28;20750;-81
2022/11/09 07:03:38;;;;;;;9.90;8.95;;;29.70;46.50;;;;;;5006918;28;20393;-83
2022/11/09 07:06:11;;;;;;;4.07;3.70;;;29.50;46.90;;;;;;4994951;28;21138;-85
2022/11/09 07:08:40;;;;;;;2.03;1.83;;;29.60;46.60;;;;;;4993183;28;20420;-84
2022/11/09 07:11:12;;;;;;;2.75;0.85;;;29.30;46.40;;;;;;4999388;28;20392;-82
2022/11/09 07:13:40;;;;;;;4.25;1.73;;;29.10;46.70;;;;;;5004598;28;20776;-85
2022/11/09 07:16:07;;;;;;;1.90;1.30;;;29.00;47.20;;;;;;5007675;28;20874;-85
2022/11/09 07:18:34;;;;;;;2.00;0.80;;;29.00;46.80;;;;;;5001199;28;20457;-81
2022/11/09 07:21:04;;;;;;;2.30;0.50;;;29.00;47.00;;;;;;5009155;28;20456;-81
2022/11/09 07:23:31;;;;;;;1.03;0.53;;;28.70;47.40;;;;;;5014377;28;20732;-81
2022/11/09 07:25:59;;;;;;;2.33;0.60;;;28.70;47.80;;;;;;5013515;28;20851;-82
2022/11/09 07:28:26;;;;;;;2.03;0.70;;;28.60;47.90;;;;;;5009305;28;20415;-81
2022/11/09 07:30:53;;;;;;;1.58;0.63;;;28.30;48.60;;;;;;5013329;28;20375;-81
2022/11/09 07:33:21;;;;;;;1.95;0.60;;;28.10;49.30;;;;;;5013417;28;20411;-85
2022/11/09 07:35:48;;;;;;;1.65;0.50;;;27.90;49.70;;;;;;4999773;28;20384;-85
2022/11/09 07:38:15;;;;;;;1.85;0.60;;;27.60;50.20;;;;;;5007561;28;20529;-91
2022/11/09 07:40:43;;;;;;;1.65;0.60;;;27.50;50.00;;;;;;4999828;28;20919;-83
2022/11/09 07:43:11;;;;;;;2.67;0.60;;;27.40;50.60;;;;;;4993203;28;20404;-82
2022/11/09 07:45:38;;;;;;;3.42;0.70;;;27.10;51.00;;;;;;4983797;28;20381;-84
2022/11/09 07:48:08;;;;;;;3.30;0.60;;;26.60;52.10;;;;;;5004152;28;20415;-83
2022/11/09 07:50:37;;;;;;;1.88;0.65;;;26.40;52.90;;;;;;4997867;28;20398;-84
2022/11/09 07:53:06;;;;;;;1.85;0.68;;;26.20;53.40;;;;;;5012612;28;20751;-82
2022/11/09 07:55:33;;;;;;;2.30;0.60;;;25.80;54.40;;;;;;4998476;28;20389;-81
2022/11/09 07:58:06;;;;;;;1.70;0.63;;;25.50;55.10;;;;;;4987060;28;20390;-84
2022/11/09 08:00:36;;;;;;;1.58;0.50;;;25.10;56.00;;;;;;5000876;28;20392;-82
2022/11/09 08:03:03;;;;;;;1.48;0.60;;;24.80;57.10;;;;;;5004278;28;20383;-83
2022/11/09 08:05:31;;;;;;;3.00;0.60;;;24.40;58.00;;;;;;5012540;28;20393;-83
2022/11/09 08:08:03;;;;;;;1.85;0.63;;;24.00;59.30;;;;;;5012004;28;20415;-83
2022/11/09 08:10:31;;;;;;;2.35;0.50;;;23.70;60.20;;;;;;5001785;28;20373;-85
2022/11/09 08:13:04;;;;;;;1.00;0.60;;;23.60;60.90;;;;;;5009618;28;20379;-82
2022/11/09 08:15:31;;;;;;;2.58;0.70;;;23.40;61.10;;;;;;5005295;28;20391;-85
2022/11/09 08:18:03;;;;;;;2.08;0.50;;;23.40;61.40;;;;;;4995468;28;20397;-85
2022/11/09 08:20:31;;;;;;;2.53;0.60;;;23.20;61.30;;;;;;5001005;28;20387;-86
2022/11/09 08:22:58;;;;;;;2.17;0.60;;;22.90;62.10;;;;;;5000891;28;20827;-84
2022/11/09 08:25:25;;;;;;;2.63;0.50;;;22.50;62.50;;;;;;4988450;28;20437;-84
2022/11/09 08:27:52;;;;;;;2.43;0.60;;;22.20;63.40;;;;;;5007228;28;20862;-82
2022/11/09 08:30:21;;;;;;;1.67;0.70;;;22.00;64.00;;;;;;5001859;28;20542;-83
2022/11/09 08:32:49;;;;;;;2.95;0.55;;;21.60;65.00;;;;;;5004069;28;20998;-85
2022/11/09 08:35:22;;;;;;;1.75;0.50;;;21.50;64.90;;;;;;5008568;28;20879;-83
2022/11/09 08:37:51;;;;;;;1.83;0.60;;;21.30;65.60;;;;;;5000998;28;20390;-84
2022/11/09 08:40:25;;;;;;;2.95;0.70;;;21.10;66.30;;;;;;5011810;28;20395;-85
2022/11/09 08:42:53;;;;;;;2.60;0.77;;;20.90;67.10;;;;;;5004871;28;20509;-83
2022/11/09 08:45:20;;;;;;;1.33;0.70;;;20.70;67.80;;;;;;5003373;28;20383;-86
2022/11/09 08:47:48;;;;;;;1.20;0.60;;;20.60;68.10;;;;;;4999151;28;20403;-84
2022/11/09 08:50:23;;;;;;;1.30;0.50;;;20.40;68.40;;;;;;4999001;28;20400;-84
2022/11/09 08:52:54;;;;;;;1.55;0.57;;;20.30;68.70;;;;;;4996330;28;20389;-82
2022/11/09 08:55:21;;;;;;;1.60;0.60;;;20.20;69.00;;;;;;5004018;28;20379;-84
2022/11/09 08:57:48;;;;;;;2.58;0.55;;;20.00;69.50;;;;;;5006808;28;20403;-83
2022/11/09 09:00:18;;;;;;;2.50;0.60;;;19.90;69.60;;;;;;5011680;28;20851;-82
2022/11/09 09:02:45;;;;;;;4.80;0.77;;;19.70;70.30;;;;;;5011228;28;20384;-83
2022/11/09 09:05:15;;;;;;;1.73;0.50;;;19.60;70.10;;;;;;5011583;28;20428;-82
2022/11/09 09:07:42;;;;;;;2.10;0.60;;;19.50;70.30;;;;;;5010938;28;20525;-81
2022/11/09 09:10:10;;;;;;;2.40;0.60;;;19.50;70.70;;;;;;4991425;28;20385;-82
2022/11/09 09:12:37;;;;;;;1.90;0.57;;;19.50;71.00;;;;;;5000654;28;20399;-83
2022/11/09 09:15:05;;;;;;;1.42;0.60;;;19.50;71.00;;;;;;4989431;28;20492;-82
2022/11/09 09:17:34;;;;;;;1.33;0.60;;;19.50;71.10;;;;;;5003032;28;20398;-84
2022/11/09 09:20:02;;;;;;;2.25;0.70;;;19.30;71.60;;;;;;5010916;28;20425;-83
2022/11/09 09:22:29;;;;;;;1.98;0.60;;;19.20;72.60;;;;;;5001585;28;20394;-84
2022/11/09 09:24:56;;;;;;;3.22;0.68;;;19.20;73.30;;;;;;4999685;28;20398;-83
2022/11/09 09:27:22;;;;;;;3.28;0.77;;;19.20;73.70;;;;;;5000784;28;20407;-83
2022/11/09 09:29:49;;;;;;;2.10;0.75;;;19.20;74.30;;;;;;5006768;28;20451;-84
2022/11/09 09:32:16;;;;;;;1.63;0.68;;;19.10;74.60;;;;;;5000381;28;20735;-83
2022/11/09 09:34:43;;;;;;;1.77;0.60;;;19.10;75.20;;;;;;4990644;28;20406;-84
2022/11/09 09:37:11;;;;;;;1.65;0.65;;;19.10;75.60;;;;;;4991242;28;20387;-82
2022/11/09 09:39:38;;;;;;;2.65;0.70;;;19.00;76.40;;;;;;4999188;28;20440;-83
2022/11/09 09:42:15;;;;;;;3.08;0.70;;;19.00;77.00;;;;;;5005391;28;20389;-83
2022/11/09 09:45:19;;;;;;;3.20;0.60;;;18.90;77.60;;;;;;5003383;28;20403;-83
2022/11/09 09:47:53;;;;;;;2.63;0.70;;;18.90;78.70;;;;;;4998095;28;20498;-83
2022/11/09 09:50:36;;;;;;;3.92;0.70;;;18.80;79.40;;;;;;5001602;28;20410;-83
2022/11/09 09:53:13;;;;;;;2.63;0.63;;;18.80;80.30;;;;;;5002365;28;20371;-84
2022/11/09 09:55:49;;;;;;;3.22;0.77;;;18.70;81.30;;;;;;5014314;28;20389;-85
2022/11/09 09:58:28;;;;;;;3.10;0.70;;;18.60;82.50;;;;;;5003345;28;20391;-83
2022/11/09 10:01:05;;;;;;;1.40;0.60;;;18.60;83.40;;;;;;5002460;28;20998;-84
2022/11/09 10:03:37;;;;;;;2.22;0.70;;;18.60;85.20;;;;;;4996315;28;20426;-84
2022/11/09 10:06:47;;;;;;;2.70;0.70;;;18.50;86.20;;;;;;5001575;28;20515;-84
2022/11/09 10:09:50;;;;;;;2.67;0.70;;;18.50;87.80;;;;;;5002176;28;20499;-84
2022/11/09 10:12:48;;;;;;;1.33;0.60;;;18.40;89.20;;;;;;4999565;28;20401;-84
2022/11/09 10:15:41;;;;;;;2.17;0.90;;;18.30;90.50;;;;;;5014778;28;20458;-83
2022/11/09 10:18:32;;;;;;;3.42;1.08;;;18.30;91.70;;;;;;5000899;28;20394;-82
2022/11/09 10:21:21;;;;;;;2.88;0.90;;;18.20;92.20;;;;;;5001535;28;20469;-83
2022/11/09 10:24:15;;;;;;;3.20;0.95;;;18.00;93.00;;;;;;5011878;28;20352;-82
2022/11/09 10:26:50;;;;;;;2.27;0.87;;;18.00;94.10;;;;;;5006278;28;20383;-82
2022/11/09 10:29:26;;;;;;;2.50;0.90;;;17.90;95.00;;;;;;4994499;28;20389;-83
2022/11/09 10:31:57;;;;;;;2.42;0.90;;;17.90;95.40;;;;;;5009784;28;20423;-82
2022/11/09 10:34:30;;;;;;;4.65;0.90;;;17.90;96.00;;;;;;4994907;28;20489;-83
2022/11/09 10:37:14;;;;;;;2.28;0.95;;;17.80;96.60;;;;;;4995987;28;20496;-83
2022/11/09 10:39:57;;;;;;;3.22;1.42;;;17.70;97.00;;;;;;5007477;28;20740;-83
2022/11/09 10:42:24;;;;;;;3.47;2.00;;;17.70;97.70;;;;;;5014009;28;20878;-83
2022/11/09 10:44:51;;;;;;;5.28;2.42;;;17.60;98.20;;;;;;5007256;28;20893;-83
2022/11/09 10:47:19;;;;;;;4.78;2.33;;;17.60;98.60;;;;;;5010525;28;20534;-84
2022/11/09 10:49:46;;;;;;;6.43;2.97;;;17.50;99.10;;;;;;5008156;28;20797;-85
2022/11/09 10:52:41;;;;;;;4.60;2.40;;;17.50;99.50;;;;;;5007820;28;20407;-85
2022/11/09 10:55:25;;;;;;;4.25;2.75;;;17.40;99.90;;;;;;5001845;28;20390;-85
2022/11/09 10:58:22;;;;;;;7.05;3.70;;;17.40;99.90;;;;;;5006268;28;20427;-83
2022/11/09 11:01:13;;;;;;;7.97;4.70;;;17.30;99.90;;;;;;5007880;28;20381;-83
2022/11/09 11:03:41;;;;;;;7.43;4.05;;;17.20;99.90;;;;;;5006290;28;20873;-85
2022/11/09 11:06:22;;;;;;;5.90;3.42;;;17.20;99.90;;;;;;5013533;28;20402;-84
2022/11/09 11:09:14;;;;;;;6.13;2.58;;;17.10;99.90;;;;;;5005780;28;20420;-83
2022/11/09 11:11:41;;;;;;;3.92;2.50;;;17.00;99.90;;;;;;4983413;28;20889;-84
2022/11/09 11:14:33;;;;;;;5.93;2.05;;;16.90;99.90;;;;;;5001760;28;20483;-83
2022/11/09 11:17:01;;;;;;;3.78;1.70;;;16.90;99.90;;;;;;5000409;28;20387;-84
2022/11/09 11:19:37;;;;;;;3.35;1.60;;;16.90;99.90;;;;;;5001955;28;20420;-85
2022/11/09 11:22:13;;;;;;;2.10;1.27;;;16.70;99.90;;;;;;5008615;28;20721;-85
2022/11/09 11:25:00;;;;;;;2.10;1.20;;;16.70;99.90;;;;;;4999190;28;20792;-83
2022/11/09 11:27:59;;;;;;;2.60;1.20;;;16.70;99.90;;;;;;5003340;28;20411;-85
2022/11/09 11:30:35;;;;;;;4.47;1.40;;;16.60;99.90;;;;;;5000733;28;20400;-82
2022/11/09 11:33:10;;;;;;;2.67;1.05;;;16.50;99.90;;;;;;5001471;28;20877;-83
2022/11/09 11:35:49;;;;;;;3.10;1.10;;;16.50;99.90;;;;;;5007450;28;20406;-85
2022/11/09 11:38:42;;;;;;;3.17;1.30;;;16.50;99.90;;;;;;5012490;28;20411;-85
2022/11/09 11:41:41;;;;;;;2.63;1.60;;;16.40;99.90;;;;;;4998389;28;20384;-84
2022/11/09 11:44:52;;;;;;;4.22;1.50;;;16.40;99.90;;;;;;4981398;28;20468;-83
2022/11/09 11:47:35;;;;;;;3.05;1.38;;;16.30;99.90;;;;;;4997239;28;20399;-84
2022/11/09 11:50:14;;;;;;;2.67;1.40;;;16.30;99.90;;;;;;5005239;28;20399;-84
2022/11/09 11:52:50;;;;;;;2.67;1.30;;;16.20;99.90;;;;;;5009516;28;20869;-83
2022/11/09 11:55:45;;;;;;;4.38;1.33;;;16.20;99.90;;;;;;5003575;28;20389;-83
2022/11/09 11:58:40;;;;;;;3.40;1.33;;;16.10;99.90;;;;;;4986808;28;20405;-85
2022/11/09 12:01:54;;;;;;;4.47;1.40;;;16.20;99.90;;;;;;5008474;28;20375;-83
2022/11/09 12:04:30;;;;;;;2.97;1.20;;;16.10;99.90;;;;;;5008798;28;20383;-85
2022/11/09 12:07:05;;;;;;;5.20;1.10;;;16.10;99.90;;;;;;5012484;28;20367;-85
2022/11/09 12:09:44;;;;;;;3.80;1.30;;;16.00;99.90;;;;;;5010804;28;20402;-84
2022/11/09 12:12:32;;;;;;;3.35;1.20;;;16.00;99.90;;;;;;4998763;28;20377;-83
2022/11/09 12:15:23;;;;;;;3.72;2.00;;;16.00;99.90;;;;;;5011676;28;20391;-85
2022/11/09 12:18:21;;;;;;;2.97;1.40;;;15.90;99.90;;;;;;5010693;28;20430;-83
2022/11/09 12:21:13;;;;;;;2.70;1.70;;;15.90;99.90;;;;;;5007582;28;20388;-85
2022/11/09 12:23:43;;;;;;;4.53;1.40;;;15.90;99.90;;;;;;4986919;28;20418;-85
2022/11/09 12:26:16;;;;;;;2.70;1.10;;;15.90;99.90;;;;;;5001279;28;20389;-83
2022/11/09 12:29:01;;;;;;;3.72;1.05;;;15.90;99.90;;;;;;4981241;28;20416;-84
2022/11/09 12:31:38;;;;;;;2.80;1.20;;;15.80;99.90;;;;;;5011797;28;20387;-84
2022/11/09 12:34:09;;;;;;;3.70;1.20;;;15.80;99.90;;;;;;5011581;28;20871;-83
2022/11/09 12:37:05;;;;;;;3.25;1.23;;;15.70;99.90;;;;;;4996368;28;20396;-85
2022/11/09 12:39:35;;;;;;;2.23;1.10;;;15.80;99.90;;;;;;4975237;28;20538;-84
2022/11/09 12:42:24;;;;;;;1.73;0.95;;;15.70;99.90;;;;;;4984211;28;20400;-84
2022/11/09 12:45:28;;;;;;;2.10;0.90;;;15.70;99.90;;;;;;4979556;28;20455;-84
2022/11/09 12:47:58;;;;;;;3.20;1.20;;;15.60;99.90;;;;;;4898339;29;20466;-84
2022/11/09 12:50:27;;;;;;;3.95;1.00;;;15.60;99.90;;;;;;4906034;29;20395;-84
2022/11/09 12:52:54;;;;;;;2.47;1.00;;;15.60;99.90;;;;;;4907032;29;20762;-83
2022/11/09 12:55:39;;;;;;;2.35;1.00;;;15.60;99.90;;;;;;4877809;29;20666;-82
2022/11/09 12:58:06;;;;;;;2.28;0.90;;;15.50;99.90;;;;;;4900048;29;20395;-82
2022/11/09 13:00:33;;;;;;;3.63;0.90;;;15.50;99.90;;;;;;4912582;29;20939;-84
2022/11/09 13:03:04;;;;;;;1.60;0.85;;;15.50;99.90;;;;;;4905316;29;20415;-82
2022/11/09 13:05:36;;;;;;;2.20;0.95;;;15.40;99.90;;;;;;4912679;29;20604;-83
2022/11/09 13:08:13;;;;;;;1.95;1.00;;;15.40;99.90;;;;;;4907708;29;20428;-83
2022/11/09 13:10:40;;;;;;;2.25;0.90;;;15.40;99.90;;;;;;4887412;29;20441;-82
2022/11/09 13:13:14;;;;;;;2.33;0.90;;;15.40;99.90;;;;;;4911331;29;20427;-82
2022/11/09 13:16:17;;;;;;;2.43;1.00;;;15.30;99.90;;;;;;4909078;29;20396;-82